Time;durP1;ratioP1;P1;durP2;ratioP2;P2;SDS_P1;SDS_P2;PMS_P1;PMS_P2;Temp;Humidity;BMP_temperature;BMP_pressure;BME280_temperature;BME280_humidity;BME280_pressure;Samples;Min_cycle;Max_cycle;Signal;HPM_P1;HPM_P2
2020/12/08 00:04:23;;;;;;;17.67;10.93;;;;;;;-1.77;74.34;99027.02;516005;1093;65252;-62
2020/12/08 00:14:27;;;;;;;15.70;10.47;;;;;;;-1.81;74.79;99026.23;516619;1098;65663;-60
2020/12/08 00:24:31;;;;;;;16.47;10.87;;;;;;;-1.80;74.41;99016.80;516464;1098;65406;-60
2020/12/08 00:34:36;;;;;;;16.97;11.83;;;;;;;-1.81;74.72;99030.55;516546;1098;65283;-61
2020/12/08 00:44:41;;;;;;;21.60;11.43;;;;;;;-1.87;74.92;99021.23;516732;1093;65187;-62
2020/12/08 00:54:45;;;;;;;17.73;11.40;;;;;;;-1.88;74.68;99025.52;517021;1098;65195;-60
2020/12/08 01:04:50;;;;;;;18.03;11.00;;;;;;;-1.94;75.54;99023.11;516888;1098;65248;-62
2020/12/08 01:14:54;;;;;;;20.33;11.53;;;;;;;-1.99;75.73;99028.34;516841;1098;65653;-64
2020/12/08 01:24:57;;;;;;;17.73;11.53;;;;;;;-2.03;76.45;99028.45;516757;1098;65226;-64
2020/12/08 01:35:03;;;;;;;15.60;11.57;;;;;;;-2.05;76.03;99027.64;516710;1098;65642;-63
2020/12/08 01:45:08;;;;;;;18.40;13.13;;;;;;;-2.06;76.41;99029.34;516524;1098;65233;-63
2020/12/08 01:55:14;;;;;;;13.57;9.73;;;;;;;-2.06;76.58;99031.92;517063;1093;65175;-64
2020/12/08 02:05:18;;;;;;;16.70;11.87;;;;;;;-2.13;76.79;99014.94;516824;1098;65175;-63
2020/12/08 02:15:23;;;;;;;18.27;13.07;;;;;;;-2.19;76.89;99013.34;516565;1098;65219;-64
2020/12/08 02:25:27;;;;;;;16.85;12.10;;;;;;;-2.20;77.12;99021.91;516855;1098;65232;-64
2020/12/08 02:35:31;;;;;;;15.47;11.90;;;;;;;-2.26;77.57;99022.06;516745;1098;65256;-63
2020/12/08 02:45:35;;;;;;;16.30;9.90;;;;;;;-2.36;77.54;99048.84;516777;1098;65184;-63
2020/12/08 02:55:39;;;;;;;17.60;11.87;;;;;;;-2.48;77.64;99032.77;517134;1098;65255;-62
2020/12/08 03:05:43;;;;;;;16.05;9.50;;;;;;;-2.51;77.61;99035.41;517466;1098;65236;-63
2020/12/08 03:15:48;;;;;;;16.43;10.07;;;;;;;-2.57;77.58;99038.95;516772;1093;65265;-64
2020/12/08 03:25:52;;;;;;;14.70;9.37;;;;;;;-2.59;77.45;99050.99;516873;1098;65607;-63
2020/12/08 03:35:56;;;;;;;13.80;9.30;;;;;;;-2.54;77.58;99051.73;516943;1098;65232;-63
2020/12/08 03:46:00;;;;;;;11.80;7.20;;;;;;;-2.48;77.78;99050.77;516834;1098;65646;-63
2020/12/08 03:56:04;;;;;;;13.90;8.23;;;;;;;-2.49;77.34;99050.79;516743;1098;65256;-62
2020/12/08 04:06:08;;;;;;;11.10;8.20;;;;;;;-2.52;77.23;99085.14;516808;1092;65607;-64
2020/12/08 04:16:15;;;;;;;12.50;8.40;;;;;;;-2.56;77.70;99052.63;516799;1098;65178;-64
2020/12/08 04:26:19;;;;;;;12.03;8.97;;;;;;;-2.61;77.87;99046.75;517205;1091;65175;-63
2020/12/08 04:36:24;;;;;;;11.50;7.80;;;;;;;-2.68;78.30;99057.13;516831;1093;66107;-63
2020/12/08 04:46:28;;;;;;;13.80;8.77;;;;;;;-2.76;78.19;99053.88;516829;1098;65159;-63
2020/12/08 04:56:31;;;;;;;13.10;8.67;;;;;;;-2.80;78.30;99041.94;516704;1098;65235;-64
2020/12/08 05:06:37;;;;;;;10.93;7.67;;;;;;;-2.76;78.80;99050.45;516796;1098;65646;-64
2020/12/08 05:16:41;;;;;;;13.17;8.57;;;;;;;-2.80;78.27;99052.22;516852;1098;65258;-62
2020/12/08 05:26:55;;;;;;;16.35;10.00;;;;;;;-2.74;78.14;99064.97;516593;1098;65204;-63
2020/12/08 05:36:59;;;;;;;14.75;8.60;;;;;;;-2.70;78.08;99064.03;516827;1093;65890;-63
2020/12/08 05:47:04;;;;;;;17.15;8.35;;;;;;;-2.68;78.07;99085.41;516766;1093;65256;-63
2020/12/08 05:57:15;;;;;;;12.80;7.50;;;;;;;-2.70;77.89;99092.30;516803;1098;65614;-62
2020/12/08 06:07:28;;;;;;;12.15;8.20;;;;;;;-2.64;78.09;99098.22;516788;1093;65229;-63
2020/12/08 06:17:43;;;;;;;11.97;9.23;;;;;;;-2.66;78.28;99095.67;516641;1098;65172;-63
2020/12/08 06:27:47;;;;;;;15.37;8.07;;;;;;;-2.69;78.42;99098.30;516828;1098;66086;-63
2020/12/08 06:37:53;;;;;;;16.97;10.57;;;;;;;-2.73;78.65;99084.66;516796;1098;65165;-64
2020/12/08 06:47:57;;;;;;;15.28;9.35;;;;;;;-2.74;78.60;99090.67;517146;1098;65238;-64
2020/12/08 06:58:05;;;;;;;11.20;7.60;;;;;;;-2.76;79.08;99110.41;516769;1098;65168;-64
2020/12/08 07:08:14;;;;;;;13.73;9.17;;;;;;;-2.75;79.13;99093.25;517133;1098;65197;-63
2020/12/08 07:18:18;;;;;;;14.57;9.13;;;;;;;-2.72;78.87;99116.33;516348;1098;65214;-63
2020/12/08 07:28:24;;;;;;;16.67;9.70;;;;;;;-2.63;79.09;99144.45;516806;1098;65182;-63
2020/12/08 07:38:28;;;;;;;16.27;8.57;;;;;;;-2.46;78.79;99145.89;516701;1098;65211;-63
2020/12/08 07:48:32;;;;;;;14.40;9.43;;;;;;;-2.36;78.57;99131.13;516408;1094;65178;-63
2020/12/08 07:58:36;;;;;;;16.57;9.70;;;;;;;-2.26;78.45;99151.49;516994;1098;65172;-65
2020/12/08 08:08:40;;;;;;;15.53;9.33;;;;;;;-2.10;78.41;99140.94;516980;1098;65163;-63
2020/12/08 08:18:45;;;;;;;11.90;7.93;;;;;;;-1.88;77.31;99143.08;507669;1098;10001421;-63
2020/12/08 08:28:49;;;;;;;11.77;8.13;;;;;;;-1.56;77.08;99136.39;516392;1093;65307;-63
2020/12/08 08:38:53;;;;;;;16.30;9.73;;;;;;;-1.30;76.81;99155.59;516345;1093;65197;-63
2020/12/08 08:48:58;;;;;;;12.40;8.73;;;;;;;-1.31;75.83;99153.91;517402;1093;65182;-61
2020/12/08 08:59:02;;;;;;;15.25;10.35;;;;;;;-1.46;76.58;99160.23;516536;1098;65137;-60
2020/12/08 09:09:06;;;;;;;15.55;7.40;;;;;;;-1.47;76.51;99179.14;516672;1098;65183;-59
2020/12/08 09:19:10;;;;;;;12.20;7.73;;;;;;;-1.47;76.14;99143.09;516316;1098;65230;-59
2020/12/08 09:29:14;;;;;;;12.60;8.40;;;;;;;-1.12;75.61;99182.67;516407;1098;65421;-66
2020/12/08 09:39:19;;;;;;;11.80;8.85;;;;;;;-1.02;75.79;99181.58;516890;1098;65556;-62
2020/12/08 09:49:26;;;;;;;14.65;8.40;;;;;;;-1.02;74.90;99170.41;516691;1098;65214;-58
2020/12/08 09:59:32;;;;;;;15.25;10.03;;;;;;;-0.46;74.34;99153.59;516468;1098;65214;-55
2020/12/08 10:09:36;;;;;;;17.73;8.80;;;;;;;-0.76;74.26;99137.99;516312;1093;65175;-59
2020/12/08 10:19:40;;;;;;;17.45;9.90;;;;;;;-0.79;73.73;99158.70;517005;1093;65566;-56
2020/12/08 10:29:45;;;;;;;16.47;9.43;;;;;;;-0.61;74.24;99158.27;516985;1098;65156;-56
2020/12/08 10:39:49;;;;;;;15.00;9.20;;;;;;;-0.64;74.27;99171.21;516343;1093;65179;-58
2020/12/08 10:49:55;;;;;;;16.43;9.33;;;;;;;-0.55;74.09;99157.27;516286;1093;65166;-59
2020/12/08 10:59:59;;;;;;;16.17;10.60;;;;;;;-0.63;73.16;99141.98;516212;1098;65255;-59
2020/12/08 11:10:04;;;;;;;15.03;9.73;;;;;;;-0.55;73.95;99149.52;515989;1093;65178;-60
2020/12/08 11:20:09;;;;;;;16.80;8.17;;;;;;;-0.36;73.58;99156.77;516471;1098;65179;-59
2020/12/08 11:30:13;;;;;;;14.83;9.27;;;;;;;-0.35;72.81;99187.70;516975;1098;65286;-61
2020/12/08 11:40:18;;;;;;;15.80;10.53;;;;;;;-0.31;73.14;99185.89;517340;1098;65201;-64
2020/12/08 11:50:22;;;;;;;13.40;9.10;;;;;;;-0.32;72.74;99173.88;516793;1098;65595;-67
2020/12/08 12:00:26;;;;;;;18.20;11.80;;;;;;;-0.40;73.47;99150.00;517034;1098;65184;-61
2020/12/08 12:10:31;;;;;;;14.03;8.47;;;;;;;-0.38;73.58;99138.77;517114;1098;65227;-60
2020/12/08 12:20:36;;;;;;;16.17;9.73;;;;;;;-0.43;73.33;99167.27;516947;1098;65213;-61
2020/12/08 12:30:40;;;;;;;20.00;12.00;;;;;;;-0.46;72.55;99154.45;516571;1098;65482;-63
2020/12/08 12:40:44;;;;;;;16.97;12.00;;;;;;;-0.44;72.93;99167.30;516591;1098;65544;-63
2020/12/08 12:50:49;;;;;;;17.03;11.03;;;;;;;-0.45;73.33;99183.66;516601;1093;66219;-57
2020/12/08 13:00:54;;;;;;;16.83;12.27;;;;;;;-0.51;73.07;99183.83;516608;1098;65594;-60
2020/12/08 13:11:11;;;;;;;16.07;11.27;;;;;;;-0.47;73.01;99183.69;516751;1098;67560;-56
2020/12/08 13:21:18;;;;;;;20.17;13.17;;;;;;;-0.58;73.75;99183.97;517052;1098;65228;-59
2020/12/08 13:31:22;;;;;;;21.70;11.55;;;;;;;-0.63;73.74;99174.65;516938;1098;65275;-60
2020/12/08 13:41:31;;;;;;;18.90;11.80;;;;;;;-0.72;74.18;99171.41;507274;1098;10001102;-59
2020/12/08 13:51:35;;;;;;;21.97;12.40;;;;;;;-0.80;73.66;99190.53;518337;1093;65274;-62
2020/12/08 14:01:42;;;;;;;19.03;12.00;;;;;;;-0.90;74.62;99198.48;516128;1093;65601;-62
2020/12/08 14:11:45;;;;;;;;;;;;;;;-1.00;74.25;99215.03;516239;1093;65208;-62
2020/12/08 14:21:51;;;;;;;21.17;12.83;;;;;;;-1.11;74.85;99209.27;516584;1098;65200;-64
2020/12/08 14:31:55;;;;;;;20.63;13.57;;;;;;;-1.27;74.54;99217.34;516761;1092;65208;-65
2020/12/08 14:41:59;;;;;;;22.83;12.80;;;;;;;-1.37;75.22;99236.45;516602;1098;65679;-62
2020/12/08 14:52:04;;;;;;;19.70;12.10;;;;;;;-1.49;75.06;99246.13;516408;1098;65189;-64
2020/12/08 15:02:08;;;;;;;22.63;15.53;;;;;;;-1.59;75.56;99248.05;517111;1098;65239;-65
2020/12/08 15:12:12;;;;;;;24.33;13.47;;;;;;;-1.71;75.79;99251.69;516719;1098;65416;-61
2020/12/08 15:22:18;;;;;;;22.43;14.37;;;;;;;-1.79;75.48;99268.17;516745;1098;65165;-58
2020/12/08 15:32:23;;;;;;;25.75;15.38;;;;;;;-1.88;75.89;99277.75;516624;1098;65225;-59
2020/12/08 15:42:27;;;;;;;30.03;15.57;;;;;;;-1.95;76.18;99267.59;516696;1098;65170;-64
2020/12/08 15:52:31;;;;;;;23.03;15.07;;;;;;;-2.05;76.25;99284.94;515973;1098;65751;-67
2020/12/08 16:02:40;;;;;;;25.87;15.20;;;;;;;-2.15;75.99;99292.80;516677;1098;65322;-67
2020/12/08 16:12:58;;;;;;;23.40;16.43;;;;;;;-2.23;76.29;99293.81;516737;1098;65252;-60
2020/12/08 16:23:02;;;;;;;28.77;16.80;;;;;;;-2.33;76.23;99306.81;516647;1098;65954;-62
2020/12/08 16:33:07;;;;;;;29.77;17.17;;;;;;;-2.40;76.48;99295.78;516472;1093;65159;-63
2020/12/08 16:43:12;;;;;;;24.97;13.90;;;;;;;-2.41;76.64;99306.94;516866;1093;65849;-62
2020/12/08 16:53:16;;;;;;;22.10;13.20;;;;;;;-2.46;76.58;99310.45;516317;1093;65220;-60
2020/12/08 17:03:20;;;;;;;27.03;16.97;;;;;;;-2.57;76.73;99329.46;516318;1093;65220;-60
2020/12/08 17:13:24;;;;;;;22.90;15.17;;;;;;;-2.61;76.86;99319.23;516418;1093;65614;-61
2020/12/08 17:23:29;;;;;;;36.07;18.27;;;;;;;-2.70;77.33;99318.49;516276;1098;65175;-60
2020/12/08 17:33:33;;;;;;;28.33;18.43;;;;;;;-2.76;77.10;99323.73;516270;1093;65184;-60
2020/12/08 17:43:37;;;;;;;27.97;16.77;;;;;;;-2.80;77.23;99321.23;516424;1098;65232;-61
2020/12/08 17:53:43;;;;;;;33.57;17.57;;;;;;;-2.86;77.22;99309.31;516412;1098;65293;-65
2020/12/08 18:03:47;;;;;;;29.33;17.17;;;;;;;-2.89;77.32;99325.61;516434;1093;65582;-64
2020/12/08 18:13:51;;;;;;;32.25;15.65;;;;;;;-2.92;77.82;99324.80;516508;1093;65559;-66
2020/12/08 18:23:57;;;;;;;25.00;16.60;;;;;;;-2.86;77.84;99348.69;516188;1098;65845;-63
2020/12/08 18:34:02;;;;;;;23.33;14.07;;;;;;;-2.77;77.92;99341.73;516102;1094;65188;-64
2020/12/08 18:44:07;;;;;;;27.00;15.63;;;;;;;-2.79;78.01;99340.91;516404;1098;65265;-61
2020/12/08 18:54:15;;;;;;;27.50;15.20;;;;;;;-2.77;77.98;99346.88;516308;1098;65292;-60
2020/12/08 19:04:19;;;;;;;29.97;16.73;;;;;;;-2.69;78.64;99352.77;516189;1093;66299;-61
2020/12/08 19:14:24;;;;;;;27.47;14.67;;;;;;;-2.66;78.59;99352.72;516258;1098;65287;-60
2020/12/08 19:24:28;;;;;;;26.40;14.90;;;;;;;-2.59;78.85;99340.63;516477;1098;65211;-62
2020/12/08 19:34:35;;;;;;;24.83;15.87;;;;;;;-2.49;78.96;99346.48;516618;1093;65233;-62
2020/12/08 19:44:41;;;;;;;22.23;15.73;;;;;;;-2.44;79.12;99354.99;516188;1093;65195;-60
2020/12/08 19:54:46;;;;;;;28.07;17.60;;;;;;;-2.40;79.25;99351.48;517004;1098;65185;-64
2020/12/08 20:04:50;;;;;;;24.23;15.00;;;;;;;-2.27;79.76;99340.14;516720;1091;65166;-63
2020/12/08 20:14:54;;;;;;;29.60;16.93;;;;;;;-2.20;79.78;99338.32;516606;1098;65682;-64
2020/12/08 20:24:59;;;;;;;25.33;16.27;;;;;;;-2.08;80.13;99346.72;516750;1098;65185;-64
2020/12/08 20:35:04;;;;;;;27.87;16.20;;;;;;;-2.01;80.07;99338.89;516588;1098;65323;-62
2020/12/08 20:45:08;;;;;;;29.10;16.07;;;;;;;-1.87;80.12;99335.23;516733;1098;65251;-61
2020/12/08 20:55:12;;;;;;;28.27;15.33;;;;;;;-1.62;80.42;99329.65;516920;1098;65256;-61
2020/12/08 21:05:16;;;;;;;23.75;14.25;;;;;;;-1.45;79.50;99340.47;516613;1098;65577;-62
2020/12/08 21:15:23;;;;;;;26.47;16.77;;;;;;;-1.36;79.90;99328.30;516491;1098;65581;-62
2020/12/08 21:25:27;;;;;;;;;;;;;;;-1.39;78.97;99338.67;518438;1093;65239;-62
2020/12/08 21:35:31;;;;;;;26.97;16.53;;;;;;;-1.50;78.65;99337.14;517051;1093;65259;-61
2020/12/08 21:45:35;;;;;;;27.77;16.83;;;;;;;-1.58;78.95;99350.17;516851;1098;65243;-63
2020/12/08 21:55:39;;;;;;;26.90;15.60;;;;;;;-1.43;78.61;99349.04;516875;1092;65165;-63
2020/12/08 22:05:45;;;;;;;20.43;13.07;;;;;;;-1.24;78.65;99353.82;517071;1098;65240;-65
2020/12/08 22:15:50;;;;;;;21.73;14.03;;;;;;;-1.08;78.09;99340.66;517269;1098;65153;-61
2020/12/08 22:25:54;;;;;;;24.57;15.13;;;;;;;-1.21;78.25;99346.05;517275;1098;65173;-60
2020/12/08 22:35:59;;;;;;;30.57;14.30;;;;;;;-1.35;78.36;99354.05;517134;1098;65586;-62
2020/12/08 22:46:03;;;;;;;28.70;14.15;;;;;;;-1.46;78.28;99355.97;516940;1098;65401;-64
2020/12/08 22:56:06;;;;;;;21.20;13.50;;;;;;;-1.52;78.58;99356.06;516854;1098;65583;-61
2020/12/08 23:06:11;;;;;;;26.55;15.55;;;;;;;-1.59;78.07;99370.78;517297;1093;65236;-62
2020/12/08 23:16:15;;;;;;;23.60;13.10;;;;;;;-1.65;78.31;99376.06;517153;1098;65232;-62
2020/12/08 23:26:19;;;;;;;26.97;16.73;;;;;;;-1.74;77.90;99377.91;516637;1098;65195;-61
2020/12/08 23:36:23;;;;;;;21.70;14.05;;;;;;;-1.80;78.45;99372.02;516271;1098;65156;-62
2020/12/08 23:46:27;;;;;;;23.17;12.87;;;;;;;-1.84;77.96;99368.64;516640;1098;65182;-61
2020/12/08 23:56:31;;;;;;;23.10;14.95;;;;;;;-1.90;78.77;99359.29;516698;1093;65641;-62
